Hauptseite
METAR-TAF:

METAR-TAF

Flughäfen :

Middle Wallop Airfield

Middle Wallop, England

Breite: 51-09N, Länge: 001-34W, Höhe: 91 m

Beobachtung

Neuester Wetterbericht von vor 18 Minuten, um 06:50 UTC
Wind 3 kt aus Süd/Südost
Temperatur 15°C
Luftfeuchtigkeit 88%
Luftdruck 1019 hPa
Sichtweite 10 km oder mehr
Leicht bewölkt in der Höhe von 800 ft
Durchbrochene Bewölkung in der Höhe von 7000 ft

METAR: EGVP 180650Z 16003KT 9999 FEW008 BKN070 15/13 Q1019 BLU NOSIG

Zeit: 08:08 (07:08 UTC)

Prognose

Neuester Wetterbericht von vor 1 Stunde und 13 Minuten, um 05:55 UTC
Gültige Prognose vom 18 um 06 UTC bis 18 um 15 UTC
Wind 3 kt aus Süd/Südwest
Sichtweite 10 km oder mehr
Leicht bewölkt in der Höhe von 3000 ft

TAF: EGVP 180555Z 1806/1815 20003KT 9999 FEW030

Wetterbeobachtungen und Prognosen von mehr als 4000 Flughäfen (METAR und TAF Bericht).

Die verfügbaren Stationen werden durch gelbe und rote Markierungen auf der Karte dargestellt.

Führen Sie die Maus auf sie, um den Namen der Station zu sehen.

Darauf klicken, um die Beobachtung von Wetterbeobachtungen und Prognosen zu sehen.

Um die Karte zu ändern : klicken Sie auf den grünen Tasten mit einem schwarzen Kreuz Zum Vergrößern, auf den grünen Button mit einem Gedankenstrich zu verkleinern, oder auf die grünen Pfeile für benachbarte Karten.


METAR-TAF: